Bruno, Minnesota
Current Conditions -  °F | °C
As of 6:13 AM on Friday 28 Nov 2014 (Local Time) from KMZH Reporting Station
Light Snow Light Snow  
Wind Chill:   Ceiling: 3600
Heat Index: 10°   Visibility: 5mi
Dew Point:   Wind: 5mph
Humidity: 79%   Direction: 110°ESE
Pressure: 30.03"   Gusts: NA
Location:  46.28°N, 92.66°W
Report Text: KMZH 281213Z AUTO 11004KT 5SM -SN SCT008 SCT023 OVC036 M12/M15 A3003 RMK AO2
Loading
Personal Weather Stations






























Interactive Weather Map New forecast layout! Learn more

10-Day Weather Forecast

Advertisements
Track Severe Weather on mobile